Congressman Robert A.roe — WDH3491 — position and weather

sailwx.info

Track history (hours):
 
Tides and Currents Weather Stations Pressure Air Temp Water Temp Dewpoint Dewpoint Depression Visibility Wind Speed Wind Dir Waves Ship Positions

Congressman Robert A.roe

Owner: Port Imperial Ferry Corp., Weehawken, NJ. More information available from US FCC via Universal Licensing System and Coast Guard Vessel Documentation Center.

Last reported at 2017-Dec-09 20:48 UTC. Time now 2017-Dec-11 02:19 UTC.
Position N 40°32' W 074°04'.

Length 27 m; draft 2 m.

Type: Passenger vessel. MMSI: 366902360.

Date/timePositionNaut miles runAvg speedWind from/ knotsBaromVisibWave heightAir tempDewpointWater temp
2017-Dec-09 20:48N 40°32' W 074°04'827.7
2017-Dec-09 20:30N 40°40' W 074°03'612.5
2017-Dec-09 20:00N 40°46' W 074°01'0 0.0
2017-Dec-09 12:17N 40°46' W 074°01'312.5
2017-Dec-09 12:01N 40°43' W 074°02'11 1.2
2017-Dec-09 02:41N 40°32' W 074°03'526.2
2017-Dec-09 02:30N 40°36' W 074°03'713.2
2017-Dec-09 02:01N 40°43' W 074°01'11 8.9
2017-Dec-09 00:43N 40°32' W 074°03'626.9
2017-Dec-09 00:30N 40°37' W 074°03'611.6
2017-Dec-09 00:00N 40°43' W 074°01'3 5.6
2017-Dec-08 23:31N 40°40' W 074°01'6 4.9
2017-Dec-08 22:19N 40°35' W 074°04'824.0
2017-Dec-08 22:01N 40°42' W 074°00'3 6.5
2017-Dec-08 21:31N 40°39' W 074°02'6 5.4
2017-Dec-08 20:24N 40°33' W 074°03'1022.7
2017-Dec-08 19:59N 40°42' W 074°00'3 7.1
2017-Dec-08 19:30N 40°46' W 074°00'3 5.5
2017-Dec-08 19:00N 40°43' W 074°01'1 2.8
2017-Dec-08 18:30N 40°44' W 074°01'2 0.6
2017-Dec-08 15:24N 40°46' W 074°01'0 1.0
2017-Dec-08 14:59N 40°46' W 074°01'4 7.8
2017-Dec-08 14:31N 40°42' W 074°00'9 7.5
2017-Dec-08 13:22N 40°34' W 074°04'924.7
2017-Dec-08 13:01N 40°43' W 074°02'611.6
2017-Dec-08 12:30N 40°37' W 074°03'5 0.5
2017-Dec-08 02:43N 40°32' W 074°03'523.7
2017-Dec-08 02:30N 40°37' W 074°03'611.9
2017-Dec-08 02:00N 40°43' W 074°01'8 6.2
2017-Dec-08 00:40N 40°35' W 074°04'321.8
2017-Dec-08 00:30N 40°38' W 074°03'5 9.8
2017-Dec-08 00:01N 40°43' W 074°02'4 8.0
2017-Dec-07 23:30N 40°39' W 074°02'8 8.1
2017-Dec-07 22:33N 40°31' W 074°03'121.8
2017-Dec-07 22:30N 40°32' W 074°03'1020.6
2017-Dec-07 22:00N 40°42' W 074°00'3 5.5
2017-Dec-07 21:31N 40°39' W 074°01'7 6.8
2017-Dec-07 20:25N 40°32' W 074°03'1025.3
2017-Dec-07 20:00N 40°42' W 074°00'4 6.9
2017-Dec-07 19:30N 40°46' W 074°00'3 5.6
2017-Dec-07 19:00N 40°43' W 074°01'2 4.8
2017-Dec-07 18:30N 40°45' W 074°01'1 0.3
2017-Dec-07 15:09N 40°46' W 074°01'1 4.4
2017-Dec-07 15:00N 40°46' W 074°00'4 7.1
2017-Dec-07 14:30N 40°42' W 074°00'1110.3
2017-Dec-07 13:28N 40°32' W 074°04'1124.4
2017-Dec-07 13:01N 40°43' W 074°02'510.3
2017-Dec-07 12:30N 40°38' W 074°03'7 0.7
2017-Dec-07 02:48N 40°30' W 074°03'723.9
2017-Dec-07 02:30N 40°37' W 074°03'611.4
2017-Dec-07 02:00N 40°43' W 074°01'12 9.9
2017-Dec-07 00:50N 40°31' W 074°03'722.2
2017-Dec-07 00:31N 40°39' W 074°02'4 8.6
2017-Dec-07 00:01N 40°43' W 074°02'3 6.4
2017-Dec-06 23:31N 40°40' W 074°01'8 8.1
2017-Dec-06 22:30N 40°32' W 074°03'1121.5
2017-Dec-06 22:00N 40°42' W 074°00'3 5.5
2017-Dec-06 21:31N 40°40' W 074°01'  
2017-Dec-02 02:39N 40°32' W 074°03'428.3
2017-Dec-02 02:30N 40°36' W 074°03'714.1
2017-Dec-02 02:00N 40°43' W 074°02'11 8.4
2017-Dec-02 00:42N 40°32' W 074°03'526.4
2017-Dec-02 00:30N 40°37' W 074°03'612.4
2017-Dec-02 00:00N 40°43' W 074°01'3 6.3
2017-Dec-01 23:31N 40°40' W 074°01'8 8.2
2017-Dec-01 22:30N 40°32' W 074°05'1121.5
2017-Dec-01 22:00N 40°42' W 074°00'3 5.6
2017-Dec-01 21:31N 40°40' W 074°02'7 5.9
2017-Dec-01 20:24N 40°33' W 074°04'923.6
2017-Dec-01 20:01N 40°42' W 074°00'3 6.7
2017-Dec-01 19:30N 40°46' W 074°00'0 0.4
2017-Dec-01 18:30N 40°46' W 074°01'0 0.1
2017-Dec-01 15:15N 40°46' W 074°01'0 1.0
2017-Dec-01 15:00N 40°47' W 074°01'4 8.9
2017-Dec-01 14:30N 40°42' W 074°00'8 7.0
2017-Dec-01 13:20N 40°34' W 074°04'926.5
2017-Dec-01 13:01N 40°43' W 074°02'510.6
2017-Dec-01 12:30N 40°38' W 074°03'6 0.6
2017-Dec-01 02:41N 40°32' W 074°03'526.7
2017-Dec-01 02:30N 40°36' W 074°03'713.4
2017-Dec-01 02:00N 40°43' W 074°01'11 8.9
2017-Dec-01 00:45N 40°32' W 074°03'624.6
2017-Dec-01 00:30N 40°38' W 074°03'511.0
2017-Dec-01 00:00N 40°43' W 074°01'3 5.3
2017-Nov-30 23:31N 40°40' W 074°02'6 5.5
2017-Nov-30 22:24N 40°35' W 074°04'821.1
2017-Nov-30 22:00N 40°42' W 074°00'2 3.6
2017-Nov-30 21:31N 40°41' W 074°02'8 7.4
2017-Nov-30 20:25N 40°33' W 074°04'1023.3
2017-Nov-30 20:00N 40°42' W 074°00'3 6.9
2017-Nov-30 19:30N 40°46' W 074°00'3 5.5
2017-Nov-30 19:01N 40°43' W 074°01'3 6.0
2017-Nov-30 18:30N 40°46' W 074°01'0 0.1
2017-Nov-30 15:08N 40°46' W 074°01'0 2.3
2017-Nov-30 14:59N 40°46' W 074°01'4 8.2
2017-Nov-30 14:30N 40°42' W 074°00'10 8.3
2017-Nov-30 13:18N 40°32' W 074°04'828.1
2017-Nov-30 13:00N 40°41' W 074°03'2 3.7
2017-Nov-30 12:30N 40°39' W 074°02'7 0.7
2017-Nov-30 02:39N 40°32' W 074°03'428.3
2017-Nov-30 02:30N 40°36' W 074°03'713.5
2017-Nov-30 02:00N 40°43' W 074°01'12 9.2
2017-Nov-30 00:45N 40°32' W 074°03'726.1
2017-Nov-30 00:30N 40°38' W 074°03'5 9.8
2017-Nov-30 00:00N 40°43' W 074°02'3 6.8
2017-Nov-29 23:30N 40°40' W 074°01'4 3.9
2017-Nov-29 22:21N 40°35' W 074°03'721.1
2017-Nov-29 22:00N 40°42' W 074°00'3 5.5
2017-Nov-29 21:30N 40°40' W 074°02'  
Track history (hours):
 
Tides and Currents Weather Stations Pressure Air Temp Water Temp Dewpoint Dewpoint Depression Visibility Wind Speed Wind Dir Waves Ship Positions

Congressman Robert A.roe

Owner: Port Imperial Ferry Corp., Weehawken, NJ. More information available from US FCC via Universal Licensing System and Coast Guard Vessel Documentation Center.

Last reported at 2017-Dec-09 20:48 UTC. Time now 2017-Dec-11 02:19 UTC.
Position N 40°32' W 074°04'.

Length 27 m; draft 2 m.

Type: Passenger vessel. MMSI: 366902360.

Date/timePositionNaut miles runAvg speedWind from/ knotsBaromVisibWave heightAir tempDewpointWater temp
2017-Dec-09 20:48N 40°32' W 074°04'827.7
2017-Dec-09 20:30N 40°40' W 074°03'612.5
2017-Dec-09 20:00N 40°46' W 074°01'0 0.0
2017-Dec-09 12:17N 40°46' W 074°01'312.5
2017-Dec-09 12:01N 40°43' W 074°02'11 1.2
2017-Dec-09 02:41N 40°32' W 074°03'526.2
2017-Dec-09 02:30N 40°36' W 074°03'713.2
2017-Dec-09 02:01N 40°43' W 074°01'11 8.9
2017-Dec-09 00:43N 40°32' W 074°03'626.9
2017-Dec-09 00:30N 40°37' W 074°03'611.6
2017-Dec-09 00:00N 40°43' W 074°01'3 5.6
2017-Dec-08 23:31N 40°40' W 074°01'6 4.9
2017-Dec-08 22:19N 40°35' W 074°04'824.0
2017-Dec-08 22:01N 40°42' W 074°00'3 6.5
2017-Dec-08 21:31N 40°39' W 074°02'6 5.4
2017-Dec-08 20:24N 40°33' W 074°03'1022.7
2017-Dec-08 19:59N 40°42' W 074°00'3 7.1
2017-Dec-08 19:30N 40°46' W 074°00'3 5.5
2017-Dec-08 19:00N 40°43' W 074°01'1 2.8
2017-Dec-08 18:30N 40°44' W 074°01'2 0.6
2017-Dec-08 15:24N 40°46' W 074°01'0 1.0
2017-Dec-08 14:59N 40°46' W 074°01'4 7.8
2017-Dec-08 14:31N 40°42' W 074°00'9 7.5
2017-Dec-08 13:22N 40°34' W 074°04'924.7
2017-Dec-08 13:01N 40°43' W 074°02'611.6
2017-Dec-08 12:30N 40°37' W 074°03'5 0.5
2017-Dec-08 02:43N 40°32' W 074°03'523.7
2017-Dec-08 02:30N 40°37' W 074°03'611.9
2017-Dec-08 02:00N 40°43' W 074°01'8 6.2
2017-Dec-08 00:40N 40°35' W 074°04'321.8
2017-Dec-08 00:30N 40°38' W 074°03'5 9.8
2017-Dec-08 00:01N 40°43' W 074°02'4 8.0
2017-Dec-07 23:30N 40°39' W 074°02'8 8.1
2017-Dec-07 22:33N 40°31' W 074°03'121.8
2017-Dec-07 22:30N 40°32' W 074°03'1020.6
2017-Dec-07 22:00N 40°42' W 074°00'3 5.5
2017-Dec-07 21:31N 40°39' W 074°01'7 6.8
2017-Dec-07 20:25N 40°32' W 074°03'1025.3
2017-Dec-07 20:00N 40°42' W 074°00'4 6.9
2017-Dec-07 19:30N 40°46' W 074°00'3 5.6
2017-Dec-07 19:00N 40°43' W 074°01'2 4.8
2017-Dec-07 18:30N 40°45' W 074°01'1 0.3
2017-Dec-07 15:09N 40°46' W 074°01'1 4.4
2017-Dec-07 15:00N 40°46' W 074°00'4 7.1
2017-Dec-07 14:30N 40°42' W 074°00'1110.3
2017-Dec-07 13:28N 40°32' W 074°04'1124.4
2017-Dec-07 13:01N 40°43' W 074°02'510.3
2017-Dec-07 12:30N 40°38' W 074°03'7 0.7
2017-Dec-07 02:48N 40°30' W 074°03'723.9
2017-Dec-07 02:30N 40°37' W 074°03'611.4
2017-Dec-07 02:00N 40°43' W 074°01'12 9.9
2017-Dec-07 00:50N 40°31' W 074°03'722.2
2017-Dec-07 00:31N 40°39' W 074°02'4 8.6
2017-Dec-07 00:01N 40°43' W 074°02'3 6.4
2017-Dec-06 23:31N 40°40' W 074°01'8 8.1
2017-Dec-06 22:30N 40°32' W 074°03'1121.5
2017-Dec-06 22:00N 40°42' W 074°00'3 5.5
2017-Dec-06 21:31N 40°40' W 074°01'  
2017-Dec-02 02:39N 40°32' W 074°03'428.3
2017-Dec-02 02:30N 40°36' W 074°03'714.1
2017-Dec-02 02:00N 40°43' W 074°02'11 8.4
2017-Dec-02 00:42N 40°32' W 074°03'526.4
2017-Dec-02 00:30N 40°37' W 074°03'612.4
2017-Dec-02 00:00N 40°43' W 074°01'3 6.3
2017-Dec-01 23:31N 40°40' W 074°01'8 8.2
2017-Dec-01 22:30N 40°32' W 074°05'1121.5
2017-Dec-01 22:00N 40°42' W 074°00'3 5.6
2017-Dec-01 21:31N 40°40' W 074°02'7 5.9
2017-Dec-01 20:24N 40°33' W 074°04'923.6
2017-Dec-01 20:01N 40°42' W 074°00'3 6.7
2017-Dec-01 19:30N 40°46' W 074°00'0 0.4
2017-Dec-01 18:30N 40°46' W 074°01'0 0.1
2017-Dec-01 15:15N 40°46' W 074°01'0 1.0
2017-Dec-01 15:00N 40°47' W 074°01'4 8.9
2017-Dec-01 14:30N 40°42' W 074°00'8 7.0
2017-Dec-01 13:20N 40°34' W 074°04'926.5
2017-Dec-01 13:01N 40°43' W 074°02'510.6
2017-Dec-01 12:30N 40°38' W 074°03'6 0.6
2017-Dec-01 02:41N 40°32' W 074°03'526.7
2017-Dec-01 02:30N 40°36' W 074°03'713.4
2017-Dec-01 02:00N 40°43' W 074°01'11 8.9
2017-Dec-01 00:45N 40°32' W 074°03'624.6
2017-Dec-01 00:30N 40°38' W 074°03'511.0
2017-Dec-01 00:00N 40°43' W 074°01'3 5.3
2017-Nov-30 23:31N 40°40' W 074°02'6 5.5
2017-Nov-30 22:24N 40°35' W 074°04'821.1
2017-Nov-30 22:00N 40°42' W 074°00'2 3.6
2017-Nov-30 21:31N 40°41' W 074°02'8 7.4
2017-Nov-30 20:25N 40°33' W 074°04'1023.3
2017-Nov-30 20:00N 40°42' W 074°00'3 6.9
2017-Nov-30 19:30N 40°46' W 074°00'3 5.5
2017-Nov-30 19:01N 40°43' W 074°01'3 6.0
2017-Nov-30 18:30N 40°46' W 074°01'0 0.1
2017-Nov-30 15:08N 40°46' W 074°01'0 2.3
2017-Nov-30 14:59N 40°46' W 074°01'4 8.2
2017-Nov-30 14:30N 40°42' W 074°00'10 8.3
2017-Nov-30 13:18N 40°32' W 074°04'828.1
2017-Nov-30 13:00N 40°41' W 074°03'2 3.7
2017-Nov-30 12:30N 40°39' W 074°02'7 0.7
2017-Nov-30 02:39N 40°32' W 074°03'428.3
2017-Nov-30 02:30N 40°36' W 074°03'713.5
2017-Nov-30 02:00N 40°43' W 074°01'12 9.2
2017-Nov-30 00:45N 40°32' W 074°03'726.1
2017-Nov-30 00:30N 40°38' W 074°03'5 9.8
2017-Nov-30 00:00N 40°43' W 074°02'3 6.8
2017-Nov-29 23:30N 40°40' W 074°01'4 3.9
2017-Nov-29 22:21N 40°35' W 074°03'721.1
2017-Nov-29 22:00N 40°42' W 074°00'3 5.5
2017-Nov-29 21:30N 40°40' W 074°02'  

Dump ship's entire track history